• Join FlightAware (Why Join?)
  • Login
  • US Flag 
02:12PM EDT


 

Airport Tracker/Info


-or-


 

Live Flight TrackerFlight Track Log ✈ SWA2130 ✈ 29-Apr-2013 ✈ KLAX - KELP

Flight Track Log - Related Links

Times and Time Zones

All times are in EDT time to prevent confusion due to time zone crossing. See the SWA2130 flight status page for this flight to view local times or setup timezone preferences in your user account.

Time Position Orientation Groundspeed Altitude Reporting Facility
EDT Latitude Longitude Course Direction KTS MPH feet Rate Location/Type
08:52PM 33.9431 -118.4917 235° Southwest 208 239 2,200  Level Los Angeles Center
08:53PM 33.9036 -118.5589 235° Southwest 258 297 5,500 3,240 Climbing Los Angeles Center
08:54PM 33.8222 -118.5508 175° South 279 321 8,900 3,240 Climbing Los Angeles Center
08:55PM 33.7400 -118.5317 169° South 303 349 12,200 2,940 Climbing Los Angeles Center
08:56PM 33.6767 -118.4542 134° Southeast 360 414 15,000 3,060 Climbing Los Angeles Center
08:57PM 33.6450 -118.3383 108° East 377 434 18,600 3,480 Climbing Los Angeles Center
08:58PM 33.6439 -118.1847 90° East 395 455 22,300 3,120 Climbing Los Angeles Center
08:59PM 33.6442 -118.0517 90° East 403 464 25,100 2,580 Climbing Los Angeles Center
09:00PM 33.6439 -117.9133 90° East 415 478 27,700 2,280 Climbing Los Angeles Center
09:01PM 33.6436 -117.7711 90° East 426 490 29,900 1,920 Climbing Los Angeles Center
09:02PM 33.6428 -117.6269 90° East 433 498 31,700 1,800 Climbing Los Angeles Center
09:03PM 33.6419 -117.4767 90° East 448 516 33,600 2,100 Climbing Los Angeles Center
09:04PM 33.6408 -117.2992 90° East 447 514 36,100 2,040 Climbing Los Angeles Center
09:05PM 33.6253 -117.1542 97° East 440 506 37,800 1,260 Climbing Los Angeles Center
09:06PM 33.6100 -117.0081 97° East 442 509 38,800 900 Climbing Los Angeles Center
09:07PM 33.5981 -116.8883 97° East 450 518 39,700 840 Climbing Los Angeles Center
09:08PM 33.5800 -116.7078 97° East 460 529 40,600 600 Climbing Los Angeles Center
09:09PM 33.5631 -116.5547 98° East 462 532 41,000 180 Climbing Los Angeles Center
09:10PM 33.5464 -116.4028 97° East 459 528 41,000  Level Los Angeles Center
09:11PM 33.5269 -116.2228 97° East 454 522 41,000  Level Los Angeles Center
09:12PM 33.5103 -116.0733 98° East 452 520 41,000  Level Los Angeles Center
09:13PM 33.4944 -115.9231 97° East 454 522 41,000  Level Los Angeles Center
09:14PM 33.4778 -115.7750 98° East 451 519 41,000  Level Los Angeles Center
09:15PM 33.4608 -115.6256 98° East 452 520 41,000  Level Los Angeles Center
09:16PM 33.4436 -115.4783 98° East 449 517 41,000  Level Los Angeles Center
09:17PM 33.4261 -115.3297 98° East 450 518 41,000  Level Los Angeles Center
09:19PM 33.4086 -115.1811 98° East 451 519 41,000  Level Los Angeles Center
09:20PM 33.3869 -115.0033 98° East 450 518 41,000  Level Los Angeles Center
09:21PM 33.3683 -114.8528 98° East 463 533 41,000  Level Los Angeles Center
09:22PM 33.3503 -114.7044 98° East 453 521 41,000  Level Los Angeles Center
09:23PM 33.3314 -114.5564 99° East 456 525 41,000  Level Los Angeles Center
09:24PM 33.3131 -114.4069 98° East 451 519 41,000  Level Los Angeles Center
09:25PM 33.2956 -114.2339 97° East 455 524 41,000  Level Albuquerque Center
09:26PM 33.2769 -114.0839 98° East 455 524 41,000  Level Albuquerque Center
09:27PM 33.2581 -113.9347 99° East 456 525 41,000 -300 Level Albuquerque Center
09:28PM 33.2378 -113.7833 99° East 460 529 40,400 -840 Descending Albuquerque Center
09:29PM 33.2189 -113.6378 99° East 449 517 39,300 -1,380 Descending Albuquerque Center
09:30PM 33.1994 -113.4906 99° East 448 516 37,600 -1,140 Descending Albuquerque Center
09:31PM 33.1800 -113.3481 99° East 440 506 37,000 -300 Descending Albuquerque Center
09:32PM 33.1606 -113.2047 99° East 437 503 37,000  Level Albuquerque Center
09:33PM 33.1372 -113.0314 99° East 438 504 37,000  Level Albuquerque Center
09:34PM 33.1175 -112.8878 99° East 438 504 37,000  Level Albuquerque Center
09:35PM 33.0983 -112.7456 99° East 435 501 37,000  Level Albuquerque Center
09:36PM 33.0786 -112.6033 99° East 434 499 37,000  Level Albuquerque Center
09:37PM 33.0581 -112.4600 100° East 436 502 37,000  Level Albuquerque Center
09:38PM 33.0378 -112.3164 100° East 439 505 37,000  Level Albuquerque Center
09:39PM 33.0164 -112.1633 99° East 439 505 37,000  Level Albuquerque Center
09:40PM 32.9967 -112.0214 99° East 438 504 37,000  Level Albuquerque Center
09:41PM 32.9756 -111.8789 100° East 440 506 37,000  Level Albuquerque Center
09:42PM 32.9556 -111.7375 100° East 437 503 37,000  Level Albuquerque Center
09:43PM 32.9353 -111.5961 100° East 437 503 37,000  Level Albuquerque Center
09:44PM 32.9133 -111.4558 101° East 434 499 37,000  Level Albuquerque Center
09:45PM 32.8875 -111.2869 100° East 434 499 37,000  Level Albuquerque Center
09:46PM 32.8669 -111.1456 100° East 436 502 37,000  Level Albuquerque Center
09:47PM 32.8458 -111.0053 100° East 434 499 37,000  Level Albuquerque Center
09:48PM 32.8236 -110.8625 100° East 437 503 37,000  Level Albuquerque Center
09:49PM 32.8028 -110.7200 100° East 439 505 37,000  Level Albuquerque Center
09:50PM 32.7803 -110.5800 101° East 439 505 37,000  Level Albuquerque Center
09:51PM 32.7572 -110.4394 101° East 439 505 37,000  Level Albuquerque Center
09:52PM 32.7347 -110.2967 101° East 442 509 37,000  Level Albuquerque Center
09:53PM 32.7083 -110.1261 100° East 442 509 37,000  Level Albuquerque Center
09:54PM 32.6836 -109.9831 102° East 446 513 37,000  Level Albuquerque Center
09:55PM 32.6611 -109.8403 101° East 446 513 37,000  Level Albuquerque Center
09:56PM 32.6375 -109.6975 101° East 447 514 37,000  Level Albuquerque Center
09:57PM 32.6361 -109.6924 101° East  Level FlightAware Approximate
09:59PM 32.5844 -109.3836 101° East 444 511 37,000  Level Albuquerque Center
10:00PM 32.5614 -109.2436 101° East 441 507 37,000  Level Albuquerque Center
10:01PM 32.5367 -109.1036 102° East 440 506 37,000  Level Albuquerque Center
10:02PM 32.5142 -108.9642 101° East 439 505 37,000  Level Albuquerque Center
10:03PM 32.4894 -108.8247 102° East 440 506 37,000 -300 Level Albuquerque Center
10:04PM 32.4611 -108.6572 101° East 439 505 36,500 -720 Descending Albuquerque Center
10:05PM 32.4364 -108.5183 102° East 438 504 35,600 -1,080 Descending Albuquerque Center
10:06PM 32.4153 -108.3903 101° East 435 501 34,400 -1,320 Descending Albuquerque Center
10:07PM 32.3906 -108.2494 102° East 437 503 33,000 -720 Descending Albuquerque Center
10:08PM 32.3606 -108.0825 102° East 436 502 33,000  Level Albuquerque Center
10:09PM 32.3361 -107.9447 102° East 432 497 33,000 -1,380 Level Albuquerque Center
10:10PM 32.3117 -107.8069 102° East 431 496 30,300 -2,640 Descending Albuquerque Center
10:11PM 32.2864 -107.6703 102° East 431 496 27,700 -2,400 Descending Albuquerque Center
10:12PM 32.2600 -107.5394 103° East 419 482 25,500 -2,100 Descending Albuquerque Center
10:13PM 32.2294 -107.4128 106° East 399 459 23,400 -2,040 Descending Albuquerque Center
10:14PM 32.2003 -107.2944 106° East 382 440 21,400 -2,160 Descending Albuquerque Center
10:15PM 32.1706 -107.1614 105° East 368 423 19,100 -2,100 Descending Albuquerque Center
10:16PM 32.1514 -107.0828 106° East 354 407 17,700 -1,860 Descending Albuquerque Center
10:16PM 32.1447 -107.0522 104° East 356 410 17,200 -1,860 Descending Albuquerque Center
10:17PM 32.1197 -106.9503 106° East 343 395 15,500 -1,860 Descending Albuquerque Center
10:18PM 32.0925 -106.8442 107° East 335 386 13,700 -1,860 Descending Albuquerque Center
10:19PM 32.0675 -106.7400 106° East 333 383 11,800 -1,680 Descending Albuquerque Center
10:20PM 32.0428 -106.6361 106° East 321 369 10,200 -1,140 Descending Albuquerque Center
10:21PM 32.0200 -106.5439 106° East 295 339 9,400 -600 Descending Albuquerque Center
10:22PM 31.9839 -106.4628 118° Southeast 250 288 9,100 -600 Descending Albuquerque Center
10:23PM 31.9492 -106.4014 124° Southeast 215 247 8,300 -900 Descending Albuquerque Center
10:24PM 31.9058 -106.3619 142° Southeast 184 212 7,300 -1,380 Descending Albuquerque Center
10:25PM 31.8678 -106.3289 144° Southeast 159 183 5,600 -1,440 Descending Albuquerque Center
10:26PM 31.8358 -106.3519 212° Southwest 141 162 4,400 -1,200 Descending Albuquerque Center
10:28PM 31.8000 -106.3667 90° East  Level FlightAware Approximate
10:35PM 31.8072 -106.3764 90° East  Level Estimated
10:36PM 31.8072 -106.3764 90° East  Level Estimated
10:37PM 31.8072 -106.3764 90° East  Level Estimated
10:38PM 31.8072 -106.3764 90° East  Level Estimated
10:39PM 31.8072 -106.3764 90° East  Level Estimated